Time;durP1;ratioP1;P1;durP2;ratioP2;P2;SDS_P1;SDS_P2;PMS_P1;PMS_P2;Temp;Humidity;BMP_temperature;BMP_pressure;BME280_temperature;BME280_humidity;BME280_pressure;Samples;Min_cycle;Max_cycle;Signal;HPM_P1;HPM_P2
2021/05/24 00:00:59;;;;;;;2.70;2.42;;;7.40;99.90;;;;;;5053890;28;20039;-73
2021/05/24 00:03:25;;;;;;;3.65;2.42;;;7.40;99.90;;;;;;5053770;28;20073;-73
2021/05/24 00:05:50;;;;;;;4.20;2.20;;;7.60;99.90;;;;;;5056128;28;20024;-73
2021/05/24 00:08:16;;;;;;;3.20;2.55;;;7.50;99.90;;;;;;5055836;28;20153;-73
2021/05/24 00:10:43;;;;;;;3.83;2.33;;;7.50;99.90;;;;;;5053685;28;20021;-74
2021/05/24 00:13:11;;;;;;;4.30;2.35;;;7.50;99.90;;;;;;5040843;28;20468;-73
2021/05/24 00:15:45;;;;;;;2.55;2.22;;;7.50;99.90;;;;;;5069210;28;20499;-73
2021/05/24 00:18:11;;;;;;;3.45;2.30;;;7.40;99.90;;;;;;5053609;28;20495;-73
2021/05/24 00:20:59;;;;;;;3.35;2.53;;;7.60;99.90;;;;;;5053531;28;20074;-72
2021/05/24 00:23:25;;;;;;;5.15;2.97;;;7.20;99.90;;;;;;5053483;28;20415;-73
2021/05/24 00:25:51;;;;;;;2.50;2.08;;;7.20;99.90;;;;;;5041292;28;20031;-73
2021/05/24 00:28:17;;;;;;;3.00;2.30;;;7.20;99.90;;;;;;5037341;28;20117;-72
2021/05/24 00:30:47;;;;;;;2.95;2.47;;;7.20;99.90;;;;;;5042334;28;20040;-73
2021/05/24 00:33:14;;;;;;;4.25;2.58;;;7.30;99.90;;;;;;5053366;28;20047;-73
2021/05/24 00:35:40;;;;;;;3.42;2.00;;;7.30;99.90;;;;;;5039694;28;20017;-74
2021/05/24 00:38:06;;;;;;;2.38;2.17;;;7.30;99.90;;;;;;5053259;28;20013;-74
2021/05/24 00:40:34;;;;;;;2.55;2.35;;;7.30;99.90;;;;;;5045064;28;20056;-73
2021/05/24 00:43:01;;;;;;;3.50;2.25;;;7.30;99.90;;;;;;5067937;28;20025;-73
2021/05/24 00:45:27;;;;;;;4.07;3.00;;;7.30;99.90;;;;;;5053365;28;20039;-73
2021/05/24 00:47:52;;;;;;;2.83;2.30;;;7.20;99.90;;;;;;5035352;28;20063;-73
2021/05/24 00:50:18;;;;;;;3.25;2.20;;;7.10;99.90;;;;;;5053025;28;20029;-73
2021/05/24 00:52:44;;;;;;;3.78;2.75;;;7.10;99.90;;;;;;5052998;28;20043;-72
2021/05/24 00:55:10;;;;;;;3.95;2.70;;;7.00;99.90;;;;;;5053249;28;20025;-72
2021/05/24 00:57:37;;;;;;;6.55;2.45;;;7.00;99.90;;;;;;5053100;28;20021;-72
2021/05/24 01:00:08;;;;;;;4.97;2.10;;;6.90;99.90;;;;;;5052840;28;20056;-72
2021/05/24 01:02:34;;;;;;;4.07;2.30;;;7.10;99.90;;;;;;5035133;28;20017;-72
2021/05/24 01:04:59;;;;;;;3.22;2.10;;;7.20;99.90;;;;;;5052890;28;20040;-72
2021/05/24 01:07:25;;;;;;;3.38;2.15;;;7.20;99.90;;;;;;5063082;28;20032;-73
2021/05/24 01:09:51;;;;;;;3.17;2.30;;;7.30;99.90;;;;;;5053158;28;20053;-72
2021/05/24 01:12:16;;;;;;;2.22;1.92;;;7.50;99.90;;;;;;5034838;28;20028;-72
2021/05/24 01:14:42;;;;;;;2.55;2.00;;;7.50;99.90;;;;;;5052128;28;20041;-73
2021/05/24 01:17:08;;;;;;;3.40;2.03;;;7.30;99.90;;;;;;5052842;28;20035;-73
2021/05/24 01:19:33;;;;;;;2.72;2.22;;;7.20;99.90;;;;;;5052466;28;20072;-72
2021/05/24 01:21:59;;;;;;;3.55;2.47;;;7.30;99.90;;;;;;5052787;28;20430;-73
2021/05/24 01:24:25;;;;;;;2.97;2.40;;;7.20;99.90;;;;;;5052668;28;20067;-72
2021/05/24 01:26:50;;;;;;;3.40;2.35;;;7.30;99.90;;;;;;5052663;28;20033;-74
2021/05/24 01:29:19;;;;;;;2.42;2.22;;;7.00;99.90;;;;;;5052502;28;20036;-75
2021/05/24 01:31:46;;;;;;;2.33;2.13;;;7.10;99.90;;;;;;5052576;28;20036;-74
2021/05/24 01:34:12;;;;;;;3.88;2.20;;;7.10;99.90;;;;;;5052503;28;20032;-73
2021/05/24 01:36:38;;;;;;;2.28;1.92;;;7.10;99.90;;;;;;5052350;28;20108;-73
2021/05/24 01:39:06;;;;;;;2.25;2.05;;;7.30;99.90;;;;;;5052236;28;20480;-73
2021/05/24 01:41:31;;;;;;;5.00;2.20;;;7.40;99.90;;;;;;5052281;28;20021;-73
2021/05/24 01:43:57;;;;;;;3.55;2.03;;;7.20;99.90;;;;;;5052416;28;20036;-73
2021/05/24 01:46:23;;;;;;;2.65;2.28;;;7.20;99.90;;;;;;5034298;28;20494;-73
2021/05/24 01:48:49;;;;;;;2.42;2.15;;;7.10;99.90;;;;;;5052170;28;20060;-73
2021/05/24 01:51:14;;;;;;;2.70;2.38;;;7.10;99.90;;;;;;5052008;28;20029;-73
2021/05/24 01:53:40;;;;;;;2.45;2.13;;;6.90;99.90;;;;;;5034307;28;20021;-73
2021/05/24 01:56:06;;;;;;;3.97;2.10;;;6.80;99.90;;;;;;5052124;28;20469;-73
2021/05/24 01:58:32;;;;;;;4.43;2.22;;;6.80;99.90;;;;;;5051885;28;20025;-73
2021/05/24 02:01:09;;;;;;;4.15;2.30;;;6.90;99.90;;;;;;5051805;28;20032;-73
2021/05/24 02:03:35;;;;;;;3.20;2.40;;;7.00;99.90;;;;;;5052000;28;20159;-74
2021/05/24 02:06:03;;;;;;;3.13;2.20;;;6.90;99.90;;;;;;5051948;28;20032;-74
2021/05/24 02:08:29;;;;;;;2.97;2.40;;;6.90;99.90;;;;;;5051783;28;20027;-71
2021/05/24 02:10:55;;;;;;;2.30;2.10;;;6.80;99.90;;;;;;5033892;28;20025;-71
2021/05/24 02:13:20;;;;;;;4.20;2.28;;;6.80;99.90;;;;;;5051823;28;20040;-71
2021/05/24 02:15:46;;;;;;;2.60;2.08;;;6.80;99.90;;;;;;5051725;28;20017;-73
2021/05/24 02:18:12;;;;;;;2.22;2.03;;;6.90;99.90;;;;;;5051786;28;20036;-73
2021/05/24 02:20:38;;;;;;;2.50;2.15;;;6.90;99.90;;;;;;5033442;28;20166;-73
2021/05/24 02:23:06;;;;;;;2.22;2.00;;;6.80;99.90;;;;;;5051707;28;20533;-73
2021/05/24 02:25:32;;;;;;;4.13;2.58;;;6.70;99.90;;;;;;5020617;28;20102;-73
2021/05/24 02:27:58;;;;;;;2.33;2.10;;;6.70;99.90;;;;;;5033726;28;20065;-73
2021/05/24 02:30:25;;;;;;;2.50;1.90;;;6.50;99.90;;;;;;5051375;28;20024;-72
2021/05/24 02:32:51;;;;;;;2.13;1.92;;;6.60;99.90;;;;;;5051550;28;20029;-73
2021/05/24 02:35:19;;;;;;;3.58;1.98;;;6.60;99.90;;;;;;5051567;28;20025;-72
2021/05/24 02:37:45;;;;;;;2.47;1.85;;;6.60;99.90;;;;;;5051499;28;20108;-74
2021/05/24 02:40:13;;;;;;;2.38;2.17;;;6.70;99.90;;;;;;5051297;28;20027;-74
2021/05/24 02:42:38;;;;;;;3.53;2.10;;;6.80;99.90;;;;;;5051403;28;20412;-73
2021/05/24 02:45:06;;;;;;;2.42;2.20;;;6.60;99.90;;;;;;5051445;28;20067;-74
2021/05/24 02:47:33;;;;;;;3.42;2.58;;;6.60;99.90;;;;;;5051327;28;20029;-72
2021/05/24 02:49:58;;;;;;;2.42;2.15;;;6.40;99.90;;;;;;5051153;28;20107;-73
2021/05/24 02:52:24;;;;;;;3.63;2.38;;;6.20;99.90;;;;;;5051207;28;20457;-72
2021/05/24 02:54:49;;;;;;;2.70;2.20;;;6.20;99.90;;;;;;5051258;28;20029;-72
2021/05/24 02:57:15;;;;;;;2.90;1.90;;;6.40;99.90;;;;;;5033482;28;20049;-73
2021/05/24 02:59:40;;;;;;;2.22;2.03;;;6.30;99.90;;;;;;5050911;28;20385;-73
2021/05/24 03:02:07;;;;;;;2.55;2.30;;;6.30;99.90;;;;;;5051191;28;20385;-73
2021/05/24 03:04:33;;;;;;;2.30;2.08;;;6.30;99.90;;;;;;5033290;28;20438;-72
2021/05/24 03:06:58;;;;;;;2.20;1.95;;;6.20;99.90;;;;;;5061773;28;20166;-73
2021/05/24 03:09:24;;;;;;;2.15;1.60;;;6.20;99.90;;;;;;5051042;28;20056;-74
2021/05/24 03:11:51;;;;;;;3.33;1.90;;;6.20;99.90;;;;;;5051226;28;20040;-73
2021/05/24 03:14:16;;;;;;;3.83;2.08;;;6.30;99.90;;;;;;5051104;28;20052;-74
2021/05/24 03:16:43;;;;;;;2.13;1.92;;;6.40;99.90;;;;;;5051097;28;20025;-74
2021/05/24 03:19:09;;;;;;;2.45;1.70;;;6.30;99.90;;;;;;5033011;28;20021;-73
2021/05/24 03:21:34;;;;;;;4.25;1.90;;;6.30;99.90;;;;;;5051077;28;20543;-73
2021/05/24 03:24:00;;;;;;;2.60;2.00;;;6.30;99.90;;;;;;5033231;28;20029;-74
2021/05/24 03:26:25;;;;;;;2.22;1.83;;;6.30;99.90;;;;;;5051100;28;20040;-74
2021/05/24 03:28:51;;;;;;;2.53;1.88;;;6.30;99.90;;;;;;5051023;28;20032;-74
2021/05/24 03:31:16;;;;;;;3.60;2.00;;;6.40;99.90;;;;;;5050958;28;20642;-74
2021/05/24 03:33:42;;;;;;;3.20;2.20;;;6.30;99.90;;;;;;5050922;28;20025;-74
2021/05/24 03:36:09;;;;;;;2.03;1.83;;;6.40;99.90;;;;;;5033074;28;20400;-74
2021/05/24 03:38:35;;;;;;;2.05;1.85;;;6.50;99.90;;;;;;5053326;28;20025;-73
2021/05/24 03:41:01;;;;;;;3.53;2.00;;;6.40;99.90;;;;;;5054350;28;20063;-73
2021/05/24 03:43:27;;;;;;;1.77;1.67;;;6.50;99.90;;;;;;5036843;28;20025;-73
2021/05/24 03:45:53;;;;;;;3.00;2.08;;;6.50;99.90;;;;;;5036629;28;20036;-74
2021/05/24 03:48:18;;;;;;;3.00;2.30;;;6.60;99.90;;;;;;5054357;28;20500;-74
2021/05/24 03:50:44;;;;;;;2.17;1.92;;;6.60;99.90;;;;;;5053942;28;20024;-74
2021/05/24 03:53:09;;;;;;;4.88;1.92;;;6.70;99.90;;;;;;5036494;28;20112;-74
2021/05/24 03:55:35;;;;;;;3.83;2.45;;;6.70;99.90;;;;;;5054350;28;20025;-74
2021/05/24 03:58:01;;;;;;;2.65;1.90;;;6.80;99.90;;;;;;5036228;28;20021;-74
2021/05/24 04:00:27;;;;;;;2.72;1.90;;;6.80;99.90;;;;;;5053964;28;20013;-74
2021/05/24 04:02:52;;;;;;;1.88;1.77;;;6.90;99.90;;;;;;5054110;28;20021;-75
2021/05/24 04:05:26;;;;;;;2.15;1.95;;;6.90;99.90;;;;;;5036063;28;20028;-74
2021/05/24 04:07:54;;;;;;;2.63;2.15;;;7.00;99.90;;;;;;5047010;28;20108;-73
2021/05/24 04:10:24;;;;;;;2.75;2.22;;;7.00;99.90;;;;;;5053870;28;20017;-73
2021/05/24 04:12:49;;;;;;;3.88;2.50;;;7.10;99.90;;;;;;5054134;28;20017;-73
2021/05/24 04:15:16;;;;;;;3.03;2.50;;;7.00;99.90;;;;;;5036157;28;20115;-73
2021/05/24 04:17:43;;;;;;;3.50;2.10;;;7.10;99.90;;;;;;5053907;28;20017;-73
2021/05/24 04:20:11;;;;;;;4.00;2.13;;;7.10;99.90;;;;;;5053643;28;20051;-73
2021/05/24 04:22:40;;;;;;;2.55;2.33;;;7.20;99.90;;;;;;5053907;28;20568;-73
2021/05/24 04:25:07;;;;;;;2.72;2.30;;;7.30;99.90;;;;;;5053686;28;20029;-74
2021/05/24 04:27:33;;;;;;;4.60;2.70;;;7.30;99.90;;;;;;5053797;28;20028;-73
2021/05/24 04:30:00;;;;;;;3.80;2.30;;;7.30;99.90;;;;;;5068815;28;20032;-73
2021/05/24 04:32:25;;;;;;;4.40;2.80;;;7.30;99.90;;;;;;5053635;28;20021;-73
2021/05/24 04:34:51;;;;;;;3.45;3.15;;;7.40;99.90;;;;;;5053534;28;20031;-74
2021/05/24 04:37:17;;;;;;;3.67;2.90;;;7.60;99.90;;;;;;5053647;28;20120;-74
2021/05/24 04:39:44;;;;;;;4.72;2.53;;;7.60;99.90;;;;;;5053165;28;20167;-74
2021/05/24 04:42:10;;;;;;;4.32;3.25;;;7.70;99.90;;;;;;5053453;28;20043;-74
2021/05/24 04:44:35;;;;;;;4.00;3.60;;;7.60;99.90;;;;;;5053283;28;20387;-74
2021/05/24 04:47:02;;;;;;;6.38;5.15;;;7.70;99.90;;;;;;5052943;28;20029;-74
2021/05/24 04:49:27;;;;;;;5.10;4.60;;;7.40;99.90;;;;;;5052108;28;20040;-74
2021/05/24 04:51:53;;;;;;;4.75;4.25;;;7.50;99.90;;;;;;5035326;28;20033;-74
2021/05/24 04:54:18;;;;;;;6.30;4.18;;;7.40;99.90;;;;;;5052915;28;20033;-74
2021/05/24 04:56:44;;;;;;;5.45;3.97;;;7.50;99.90;;;;;;5053166;28;20087;-74
2021/05/24 04:59:09;;;;;;;8.10;6.65;;;7.60;99.90;;;;;;5023833;28;20507;-74
2021/05/24 05:01:35;;;;;;;9.55;8.55;;;7.80;99.90;;;;;;5043306;28;20096;-74
2021/05/24 05:04:00;;;;;;;8.57;7.78;;;8.10;99.90;;;;;;5052959;28;20484;-73
2021/05/24 05:06:26;;;;;;;8.73;7.22;;;8.20;99.90;;;;;;5053052;28;20025;-73
2021/05/24 05:08:52;;;;;;;4.55;4.15;;;8.10;99.90;;;;;;5034923;28;20098;-73
2021/05/24 05:11:17;;;;;;;5.70;3.70;;;8.10;99.90;;;;;;5052823;28;20083;-73
2021/05/24 05:13:43;;;;;;;7.05;2.95;;;8.30;99.90;;;;;;5034899;28;20048;-73
2021/05/24 05:16:10;;;;;;;4.47;2.90;;;8.40;99.90;;;;;;5034901;28;20024;-73
2021/05/24 05:18:35;;;;;;;3.60;3.03;;;8.50;99.90;;;;;;5052776;28;20108;-72
2021/05/24 05:21:01;;;;;;;5.18;3.83;;;8.50;99.90;;;;;;5052805;28;20100;-73
2021/05/24 05:23:27;;;;;;;8.30;3.45;;;8.60;99.90;;;;;;5034782;28;20100;-73
2021/05/24 05:25:52;;;;;;;4.35;3.13;;;8.60;99.90;;;;;;5052670;28;20029;-73
2021/05/24 05:28:21;;;;;;;3.97;2.88;;;8.70;99.90;;;;;;5052450;28;20075;-73
2021/05/24 05:30:46;;;;;;;4.45;2.95;;;8.70;99.90;;;;;;5052351;28;20013;-74
2021/05/24 05:33:12;;;;;;;3.60;2.63;;;8.90;99.90;;;;;;5052496;28;20035;-73
2021/05/24 05:35:37;;;;;;;3.40;2.80;;;8.90;99.90;;;;;;5052465;28;20033;-73
2021/05/24 05:38:03;;;;;;;5.38;2.55;;;8.90;99.90;;;;;;5052348;28;20033;-73
2021/05/24 05:40:31;;;;;;;4.40;2.53;;;9.00;99.90;;;;;;5052231;28;20044;-73
2021/05/24 05:42:56;;;;;;;3.30;2.55;;;9.10;99.90;;;;;;5034421;28;20056;-73
2021/05/24 05:45:22;;;;;;;3.58;2.65;;;9.00;99.90;;;;;;5052039;28;20511;-73
2021/05/24 05:47:47;;;;;;;3.22;2.40;;;9.20;99.90;;;;;;5034309;28;20167;-73
2021/05/24 05:50:13;;;;;;;6.85;2.42;;;9.30;99.90;;;;;;5051996;28;20021;-74
2021/05/24 05:52:39;;;;;;;2.10;1.90;;;9.30;99.90;;;;;;5034121;28;20681;-73
2021/05/24 05:55:06;;;;;;;3.30;2.15;;;9.30;99.90;;;;;;5051990;28;20021;-74
2021/05/24 05:57:32;;;;;;;2.75;2.17;;;9.50;99.90;;;;;;5033851;28;20032;-73
2021/05/24 05:59:57;;;;;;;4.90;2.85;;;9.60;99.90;;;;;;5051307;28;20029;-73
2021/05/24 06:02:23;;;;;;;4.68;2.40;;;9.50;99.90;;;;;;5038560;28;20025;-72
2021/05/24 06:04:48;;;;;;;2.50;2.30;;;9.40;99.90;;;;;;5052021;28;20082;-72
2021/05/24 06:07:15;;;;;;;3.47;2.55;;;9.50;99.90;;;;;;5051585;28;20503;-73
2021/05/24 06:09:41;;;;;;;3.15;2.50;;;9.40;99.90;;;;;;5063061;28;20472;-73
2021/05/24 06:12:08;;;;;;;3.55;2.65;;;9.60;99.90;;;;;;5049433;28;20080;-74
2021/05/24 06:14:33;;;;;;;4.00;3.00;;;9.70;99.90;;;;;;5057716;28;20024;-74
2021/05/24 06:16:59;;;;;;;5.57;2.50;;;9.90;99.90;;;;;;5043487;28;20368;-74
2021/05/24 06:19:24;;;;;;;4.22;2.20;;;10.00;99.90;;;;;;5049214;28;20074;-74
2021/05/24 06:21:50;;;;;;;2.30;1.83;;;9.90;99.90;;;;;;5061646;28;20104;-74
2021/05/24 06:24:15;;;;;;;2.85;2.13;;;10.00;99.90;;;;;;5051307;28;20064;-74
2021/05/24 06:26:41;;;;;;;2.78;2.08;;;10.20;99.90;;;;;;5051215;28;20108;-74
2021/05/24 06:29:07;;;;;;;1.65;1.55;;;10.30;99.90;;;;;;5049429;28;20033;-74
2021/05/24 06:31:33;;;;;;;3.28;2.00;;;10.40;99.90;;;;;;5052626;28;20025;-74
2021/05/24 06:33:59;;;;;;;4.35;2.05;;;10.30;99.90;;;;;;5053670;28;20452;-74
2021/05/24 06:36:25;;;;;;;2.83;2.10;;;10.30;99.90;;;;;;5055430;28;20027;-74
2021/05/24 06:38:50;;;;;;;3.38;2.03;;;10.40;99.90;;;;;;5041241;28;20025;-74
2021/05/24 06:41:16;;;;;;;4.95;2.10;;;10.40;99.90;;;;;;5051082;28;20027;-74
2021/05/24 06:43:43;;;;;;;2.78;1.70;;;10.40;99.90;;;;;;5051548;28;20392;-74
2021/05/24 06:46:08;;;;;;;1.80;1.70;;;10.50;99.90;;;;;;5067788;28;20032;-74
2021/05/24 06:48:34;;;;;;;4.50;1.90;;;10.70;99.90;;;;;;5055320;28;20029;-74
2021/05/24 06:50:59;;;;;;;2.25;1.90;;;10.80;99.90;;;;;;5032889;28;20036;-74
2021/05/24 06:53:25;;;;;;;3.80;2.05;;;10.90;99.90;;;;;;5051236;28;20029;-74
2021/05/24 06:55:51;;;;;;;2.97;2.63;;;11.00;99.90;;;;;;5070287;28;20063;-74
2021/05/24 06:58:16;;;;;;;2.88;2.00;;;11.10;99.90;;;;;;5044948;28;20045;-73
2021/05/24 07:00:42;;;;;;;2.40;2.20;;;11.20;99.90;;;;;;5048200;28;20078;-74
2021/05/24 07:03:07;;;;;;;2.00;1.73;;;11.10;99.90;;;;;;5051327;28;20507;-74
2021/05/24 07:05:33;;;;;;;3.33;2.00;;;11.30;99.90;;;;;;5055194;28;20488;-74
2021/05/24 07:07:59;;;;;;;3.17;2.15;;;11.50;99.90;;;;;;5051015;28;20017;-74
2021/05/24 07:10:25;;;;;;;2.28;1.40;;;11.70;99.90;;;;;;5035838;28;20476;-74
2021/05/24 07:12:51;;;;;;;2.30;2.00;;;11.90;99.90;;;;;;5052472;28;20111;-73
2021/05/24 07:15:16;;;;;;;2.78;1.60;;;12.10;99.90;;;;;;5037742;28;20568;-74
2021/05/24 07:17:42;;;;;;;2.88;1.40;;;12.20;99.90;;;;;;5047621;28;20103;-74
2021/05/24 07:20:07;;;;;;;1.80;1.20;;;12.50;99.90;;;;;;5057146;28;20029;-75
2021/05/24 07:22:35;;;;;;;1.30;1.15;;;12.70;99.90;;;;;;5050623;28;20021;-75
2021/05/24 07:25:01;;;;;;;1.30;1.10;;;12.90;99.90;;;;;;5040739;28;20039;-75
2021/05/24 07:27:26;;;;;;;1.83;1.27;;;13.10;99.90;;;;;;5058524;28;20396;-75
2021/05/24 07:29:52;;;;;;;1.63;1.20;;;13.20;99.90;;;;;;5077183;28;20025;-75
2021/05/24 07:32:18;;;;;;;2.53;1.20;;;13.30;99.90;;;;;;5055042;28;20538;-75
2021/05/24 07:34:43;;;;;;;1.50;1.30;;;13.40;99.90;;;;;;5039669;28;20384;-74
2021/05/24 07:37:09;;;;;;;2.45;1.20;;;13.40;99.90;;;;;;5057681;28;20027;-75
2021/05/24 07:39:35;;;;;;;1.23;1.10;;;13.30;99.90;;;;;;5051727;28;20036;-75
2021/05/24 07:42:02;;;;;;;2.65;1.13;;;13.50;99.90;;;;;;5058671;28;20088;-75
2021/05/24 07:44:32;;;;;;;2.63;1.30;;;13.60;99.90;;;;;;5069975;28;20035;-75
2021/05/24 07:46:58;;;;;;;1.20;1.10;;;13.60;99.90;;;;;;5053251;28;20033;-75
2021/05/24 07:49:24;;;;;;;1.48;1.20;;;13.70;99.90;;;;;;5055546;28;20032;-75
2021/05/24 07:51:50;;;;;;;2.05;1.23;;;13.90;99.90;;;;;;5055289;28;20549;-74
2021/05/24 07:54:17;;;;;;;1.40;1.27;;;14.00;99.90;;;;;;5054029;28;21355;-74
2021/05/24 07:56:43;;;;;;;1.08;0.90;;;14.20;99.90;;;;;;5055759;28;20036;-75
2021/05/24 07:59:09;;;;;;;1.13;1.00;;;14.20;99.90;;;;;;5063802;28;20464;-74
2021/05/24 08:01:35;;;;;;;1.50;0.93;;;14.30;99.90;;;;;;5076217;28;20054;-74
2021/05/24 08:04:00;;;;;;;1.50;1.10;;;14.30;99.90;;;;;;5054106;28;20031;-74
2021/05/24 08:06:26;;;;;;;3.25;1.13;;;14.30;99.90;;;;;;5053946;28;20032;-74
2021/05/24 08:08:51;;;;;;;3.17;1.30;;;14.40;99.90;;;;;;5055914;28;20162;-74
2021/05/24 08:11:17;;;;;;;2.58;1.17;;;14.40;99.90;;;;;;5051217;28;20040;-74
2021/05/24 08:13:43;;;;;;;3.10;1.20;;;14.60;99.90;;;;;;5053637;28;20025;-75
2021/05/24 08:16:12;;;;;;;1.85;1.25;;;14.90;99.90;;;;;;5053661;28;20029;-74
2021/05/24 08:18:38;;;;;;;1.13;0.90;;;14.80;99.90;;;;;;5058040;28;20035;-74
2021/05/24 08:21:06;;;;;;;2.95;1.10;;;14.80;99.90;;;;;;5057619;28;20032;-74
2021/05/24 08:23:31;;;;;;;1.85;0.90;;;14.80;99.90;;;;;;5060674;28;20024;-74
2021/05/24 08:25:57;;;;;;;0.95;0.85;;;15.00;99.90;;;;;;5045051;28;20430;-74
2021/05/24 08:28:22;;;;;;;1.02;0.90;;;15.30;99.90;;;;;;5057508;28;20365;-74
2021/05/24 08:30:48;;;;;;;1.83;0.80;;;15.60;99.90;;;;;;5054206;28;20554;-74
2021/05/24 08:33:13;;;;;;;3.33;0.82;;;15.70;99.90;;;;;;5056367;28;20132;-74
2021/05/24 08:35:39;;;;;;;1.00;0.90;;;15.70;99.90;;;;;;5053570;28;20053;-74
2021/05/24 08:38:05;;;;;;;1.20;0.90;;;16.00;99.90;;;;;;5060182;28;20420;-75
2021/05/24 08:40:30;;;;;;;2.33;0.98;;;16.50;99.90;;;;;;5047225;28;20027;-75
2021/05/24 08:42:58;;;;;;;1.45;0.90;;;16.60;99.90;;;;;;5059059;28;20056;-75
2021/05/24 08:45:28;;;;;;;1.90;0.75;;;16.80;99.90;;;;;;5058453;28;20484;-75
2021/05/24 08:47:54;;;;;;;0.80;0.80;;;16.50;99.90;;;;;;5056496;28;20017;-74
2021/05/24 08:50:20;;;;;;;1.60;0.90;;;16.60;99.90;;;;;;5060479;28;20024;-75
2021/05/24 08:52:45;;;;;;;2.88;0.73;;;16.90;99.90;;;;;;5057139;28;20056;-75
2021/05/24 08:55:12;;;;;;;1.08;0.90;;;17.00;99.90;;;;;;5059397;28;20080;-75
2021/05/24 08:57:39;;;;;;;1.17;0.85;;;17.20;99.90;;;;;;5055220;28;20095;-73
2021/05/24 09:00:08;;;;;;;2.60;0.93;;;17.10;99.90;;;;;;5037799;28;20021;-73
2021/05/24 09:02:38;;;;;;;1.98;0.80;;;17.10;99.90;;;;;;5056110;28;20048;-73
2021/05/24 09:05:05;;;;;;;1.58;0.70;;;16.90;99.90;;;;;;5056769;28;20032;-73
2021/05/24 09:07:56;;;;;;;2.95;1.40;;;17.10;99.90;;;;;;5053954;28;20025;-73
2021/05/24 09:10:24;;;;;;;0.93;0.80;;;17.30;99.90;;;;;;5051657;28;20438;-73
2021/05/24 09:12:50;;;;;;;2.00;1.08;;;17.40;99.90;;;;;;5050800;28;20021;-72
2021/05/24 09:15:17;;;;;;;1.67;0.90;;;17.60;99.90;;;;;;5036851;28;20056;-73
2021/05/24 09:17:45;;;;;;;1.20;1.00;;;17.60;99.90;;;;;;5047499;28;20028;-73
2021/05/24 09:20:23;;;;;;;0.70;0.70;;;17.90;99.90;;;;;;5037461;28;20079;-73
2021/05/24 09:23:13;;;;;;;2.38;1.30;;;18.00;99.90;;;;;;5052450;28;20039;-73
2021/05/24 09:25:48;;;;;;;2.88;1.50;;;18.00;99.90;;;;;;5048564;28;20095;-73
2021/05/24 09:28:24;;;;;;;1.58;1.45;;;18.20;99.90;;;;;;5052505;28;20028;-73
2021/05/24 09:30:57;;;;;;;1.98;1.10;;;18.10;99.90;;;;;;5059048;28;20067;-73
2021/05/24 09:33:23;;;;;;;1.30;1.10;;;17.90;99.90;;;;;;5055593;28;20179;-73
2021/05/24 09:35:50;;;;;;;1.83;1.02;;;17.80;99.90;;;;;;5062741;28;20468;-73
2021/05/24 09:38:20;;;;;;;1.08;0.90;;;17.90;99.90;;;;;;5051987;28;20020;-73
2021/05/24 09:40:51;;;;;;;0.93;0.80;;;17.80;99.90;;;;;;5054199;28;20110;-73
2021/05/24 09:43:17;;;;;;;0.73;0.73;;;17.80;99.90;;;;;;5064168;28;20025;-73
2021/05/24 09:45:43;;;;;;;3.55;1.48;;;17.80;99.90;;;;;;5034097;28;20032;-73
2021/05/24 09:48:09;;;;;;;0.93;0.82;;;17.90;99.90;;;;;;5058338;28;20028;-72
2021/05/24 09:50:36;;;;;;;2.17;0.80;;;18.00;99.90;;;;;;5041976;28;20032;-73
2021/05/24 09:53:02;;;;;;;1.15;0.90;;;17.90;99.90;;;;;;5067069;28;20035;-73
2021/05/24 09:55:29;;;;;;;2.05;1.10;;;18.00;99.90;;;;;;5053722;28;20047;-73
2021/05/24 09:57:59;;;;;;;1.10;0.90;;;17.90;99.90;;;;;;5052425;28;20017;-73
2021/05/24 10:00:30;;;;;;;1.08;1.02;;;18.00;99.90;;;;;;5055957;28;20021;-73
2021/05/24 10:02:58;;;;;;;1.10;0.90;;;18.20;99.90;;;;;;5038247;28;20028;-72
2021/05/24 10:05:42;;;;;;;0.80;0.80;;;18.40;99.90;;;;;;5055866;28;20043;-72
2021/05/24 10:08:08;;;;;;;0.80;0.80;;;18.40;99.90;;;;;;5060030;28;20060;-72
2021/05/24 10:10:34;;;;;;;1.00;0.90;;;18.30;99.90;;;;;;5055796;28;20468;-72
2021/05/24 10:13:00;;;;;;;0.77;0.77;;;18.60;99.90;;;;;;5059946;28;20025;-72
2021/05/24 10:15:26;;;;;;;1.23;0.90;;;18.60;99.90;;;;;;5058827;28;20024;-73
2021/05/24 10:17:59;;;;;;;1.45;0.80;;;18.50;99.90;;;;;;5038684;28;20384;-73
2021/05/24 10:20:25;;;;;;;1.02;0.80;;;18.70;99.90;;;;;;5065796;28;20021;-73
2021/05/24 10:22:50;;;;;;;0.98;0.93;;;18.90;99.90;;;;;;5055644;28;20030;-73
2021/05/24 10:25:17;;;;;;;0.88;0.70;;;19.20;99.90;;;;;;5051457;28;20107;-73
2021/05/24 10:27:43;;;;;;;0.88;0.80;;;19.10;99.90;;;;;;5056247;28;20112;-72
2021/05/24 10:30:10;;;;;;;0.70;0.70;;;19.10;99.90;;;;;;5051321;28;20441;-73
2021/05/24 10:32:37;;;;;;;0.90;0.88;;;18.80;99.90;;;;;;5055600;28;20116;-73
2021/05/24 10:35:30;;;;;;;0.70;0.70;;;18.60;99.90;;;;;;5051458;28;20017;-73
2021/05/24 10:37:56;;;;;;;0.70;0.70;;;18.60;99.90;;;;;;5067461;28;20418;-72
2021/05/24 10:40:21;;;;;;;3.60;2.60;;;18.60;99.90;;;;;;5054702;28;20028;-73
2021/05/24 10:42:47;;;;;;;2.72;2.10;;;18.60;99.90;;;;;;5058465;28;20032;-72
2021/05/24 10:45:17;;;;;;;2.50;1.90;;;18.60;99.90;;;;;;5056427;28;20082;-73
2021/05/24 10:47:52;;;;;;;4.13;1.58;;;18.50;99.90;;;;;;5052848;28;20021;-72
2021/05/24 10:50:19;;;;;;;1.05;0.98;;;18.40;99.90;;;;;;5043931;28;20052;-72
2021/05/24 10:52:55;;;;;;;0.90;0.70;;;18.40;99.90;;;;;;5059280;28;20041;-73
2021/05/24 10:55:26;;;;;;;1.67;0.90;;;18.20;99.90;;;;;;5056784;28;20025;-73
2021/05/24 10:57:56;;;;;;;1.90;1.00;;;18.30;99.90;;;;;;5056685;28;20564;-75
2021/05/24 11:00:22;;;;;;;0.65;0.60;;;18.30;99.90;;;;;;5055083;28;20040;-73
2021/05/24 11:02:55;;;;;;;0.95;0.88;;;18.40;99.90;;;;;;5057972;28;20491;-73
2021/05/24 11:05:28;;;;;;;1.70;0.70;;;18.70;99.90;;;;;;5057956;28;20039;-73
2021/05/24 11:07:56;;;;;;;2.85;0.73;;;18.80;99.90;;;;;;5040031;28;20040;-73
2021/05/24 11:10:25;;;;;;;0.95;0.88;;;19.10;99.90;;;;;;5054237;28;20527;-73
2021/05/24 11:13:17;;;;;;;2.40;0.77;;;19.60;99.90;;;;;;5059262;28;20557;-73
2021/05/24 11:15:44;;;;;;;1.67;0.70;;;19.50;98.80;;;;;;5044467;28;20021;-73
2021/05/24 11:18:17;;;;;;;2.67;1.30;;;19.70;99.90;;;;;;5077159;28;20021;-73
2021/05/24 11:21:22;;;;;;;1.50;0.90;;;19.90;99.50;;;;;;5053942;28;20074;-73
2021/05/24 11:26:36;;;;;;;1.42;1.08;;;20.70;99.30;;;;;;5054984;28;20033;-73
2021/05/24 11:29:14;;;;;;;3.92;1.60;;;20.70;99.00;;;;;;5053879;28;20384;-73
2021/05/24 11:31:40;;;;;;;5.90;1.95;;;20.70;99.70;;;;;;5054656;28;20021;-73
2021/05/24 11:34:26;;;;;;;4.78;1.98;;;20.60;96.90;;;;;;5057496;28;20043;-73
2021/05/24 11:36:56;;;;;;;3.85;1.95;;;20.60;98.30;;;;;;5052253;28;20043;-73
2021/05/24 11:39:46;;;;;;;1.02;0.85;;;20.40;97.20;;;;;;5058373;28;20045;-73
2021/05/24 11:42:20;;;;;;;1.67;1.10;;;19.90;97.10;;;;;;5050601;28;20028;-73
2021/05/24 11:44:48;;;;;;;2.50;1.33;;;20.40;96.80;;;;;;5052745;28;20031;-73
2021/05/24 11:47:20;;;;;;;1.80;1.30;;;20.50;96.60;;;;;;5062194;28;20020;-72
2021/05/24 11:49:48;;;;;;;2.90;1.38;;;20.50;99.00;;;;;;5054149;28;20025;-73
2021/05/24 11:52:22;;;;;;;3.53;1.55;;;20.50;98.30;;;;;;5058172;28;20043;-73
2021/05/24 11:54:49;;;;;;;2.53;1.10;;;20.50;98.50;;;;;;5054420;28;20512;-73
2021/05/24 11:57:16;;;;;;;0.93;0.85;;;20.40;98.30;;;;;;5041359;28;20029;-73
2021/05/24 11:59:42;;;;;;;1.70;1.00;;;20.30;97.20;;;;;;5052946;28;20028;-73
2021/05/24 12:02:08;;;;;;;2.13;1.13;;;20.10;97.50;;;;;;5054211;28;20017;-73
2021/05/24 12:04:36;;;;;;;1.08;0.85;;;20.10;96.40;;;;;;5046643;28;20025;-73
2021/05/24 12:07:04;;;;;;;0.80;0.80;;;20.00;97.50;;;;;;5041222;28;20113;-73
2021/05/24 12:09:42;;;;;;;1.27;0.80;;;19.80;97.20;;;;;;5054956;28;20032;-73
2021/05/24 12:12:13;;;;;;;1.25;0.90;;;19.70;97.90;;;;;;5050474;28;20029;-73
2021/05/24 12:15:03;;;;;;;0.80;0.80;;;19.90;99.00;;;;;;5043993;28;20039;-73
2021/05/24 12:17:31;;;;;;;1.23;0.80;;;19.80;98.20;;;;;;5043122;28;20033;-73
2021/05/24 12:19:57;;;;;;;0.80;0.80;;;19.80;99.10;;;;;;5057385;28;20048;-73
2021/05/24 12:22:26;;;;;;;3.90;1.17;;;19.90;98.00;;;;;;5063344;28;20100;-73
2021/05/24 12:24:54;;;;;;;2.97;1.10;;;19.80;97.70;;;;;;5053227;28;20078;-73
2021/05/24 12:27:23;;;;;;;1.30;1.20;;;19.90;97.10;;;;;;5038724;28;20036;-73
2021/05/24 12:30:01;;;;;;;1.45;0.82;;;20.00;98.30;;;;;;5051101;28;20029;-73
2021/05/24 12:32:32;;;;;;;1.23;0.90;;;20.00;99.00;;;;;;5026232;28;20042;-73
2021/05/24 12:34:59;;;;;;;2.03;1.00;;;20.00;97.40;;;;;;5056996;28;20411;-73
2021/05/24 12:37:26;;;;;;;1.52;1.10;;;20.10;98.60;;;;;;5062379;28;20029;-73
2021/05/24 12:39:54;;;;;;;1.55;1.20;;;19.90;98.60;;;;;;5054974;28;20412;-74
2021/05/24 12:42:20;;;;;;;1.27;1.00;;;20.00;97.80;;;;;;5057727;28;20545;-74
2021/05/24 12:44:46;;;;;;;1.20;1.10;;;20.30;99.10;;;;;;5057286;28;20036;-74
2021/05/24 12:47:16;;;;;;;1.00;1.00;;;20.80;98.60;;;;;;5053381;28;20025;-74
2021/05/24 12:49:44;;;;;;;1.25;1.20;;;21.30;98.20;;;;;;5046303;28;20480;-74
2021/05/24 12:52:11;;;;;;;1.15;1.05;;;22.00;97.40;;;;;;5055924;28;20079;-74
2021/05/24 12:54:39;;;;;;;1.25;1.00;;;22.20;96.70;;;;;;5042714;28;20029;-74
2021/05/24 12:57:06;;;;;;;0.85;0.85;;;21.40;95.40;;;;;;5052956;28;20082;-73